QFA454 YMML-YSSY
Flight info
| Callsign | QFA454 |
|---|---|
| Flight time | 1h 8m |
| Altitude | 37000 |
| Route | DOSEL2 DOSEL Y59 RIVET RIVET4 |
| Aircraft | B738/M-SDE2E3FGHIRWXY/LB1 |
Departure
| Time | 2026-04-20 05:05 |
|---|---|
| Airport | Melbourne Airport (YMML) |
Arrival
| Time | 2026-04-20 06:14 |
|---|---|
| Airport | Sydney Kingsford Smith International Airport (YSSY) |
| Time | Latitude | Longitude | Altitude | Speed | Heading |
|---|---|---|---|---|---|
| 2026-04-20 04:51 | -37.66680 | 144.84898 | 442 ft | 0 kts | 82° |
| 2026-04-20 04:58 | -37.66680 | 144.84897 | 442 ft | 1 kts | 82° |
| 2026-04-20 04:58 | -37.66682 | 144.84878 | 442 ft | 2 kts | 83° |
| 2026-04-20 04:58 | -37.66684 | 144.84863 | 442 ft | 0 kts | 82° |
| 2026-04-20 04:59 | -37.66687 | 144.84848 | 442 ft | 2 kts | 60° |
| 2026-04-20 04:59 | -37.66696 | 144.84833 | 442 ft | 2 kts | 38° |
| 2026-04-20 04:59 | -37.66709 | 144.84824 | 442 ft | 2 kts | 13° |
| 2026-04-20 04:59 | -37.66724 | 144.84824 | 442 ft | 2 kts | 349° |
| 2026-04-20 05:00 | -37.66731 | 144.84825 | 442 ft | 1 kts | 336° |
| 2026-04-20 05:00 | -37.66735 | 144.84827 | 442 ft | 0 kts | 340° |
| 2026-04-20 05:02 | -37.66732 | 144.84825 | 442 ft | 3 kts | 340° |
| 2026-04-20 05:03 | -37.66668 | 144.84805 | 442 ft | 15 kts | 350° |
| 2026-04-20 05:03 | -37.66546 | 144.84802 | 442 ft | 20 kts | 347° |
| 2026-04-20 05:03 | -37.66386 | 144.84782 | 442 ft | 22 kts | 5° |
| 2026-04-20 05:03 | -37.66338 | 144.84787 | 442 ft | 0 kts | 4° |
| 2026-04-20 05:04 | -37.66319 | 144.84787 | 442 ft | 8 kts | 1° |
| 2026-04-20 05:04 | -37.66238 | 144.84738 | 442 ft | 17 kts | 307° |
| 2026-04-20 05:05 | -37.66210 | 144.84534 | 442 ft | 48 kts | 274° |
| 2026-04-20 05:05 | -37.66161 | 144.83707 | 443 ft | 136 kts | 274° |
| 2026-04-20 05:05 | -37.66090 | 144.82278 | 814 ft | 177 kts | 270° |
| 2026-04-20 05:05 | -37.66011 | 144.80704 | 1731 ft | 189 kts | 273° |
| 2026-04-20 05:06 | -37.65866 | 144.79063 | 2398 ft | 204 kts | 271° |
| 2026-04-20 05:06 | -37.65762 | 144.77103 | 2925 ft | 231 kts | 271° |
| 2026-04-20 05:06 | -37.65642 | 144.75030 | 3810 ft | 245 kts | 271° |
| 2026-04-20 05:06 | -37.65514 | 144.72838 | 4646 ft | 260 kts | 271° |
| 2026-04-20 05:07 | -37.65380 | 144.70596 | 5793 ft | 262 kts | 271° |
| 2026-04-20 05:07 | -37.65055 | 144.68332 | 6841 ft | 270 kts | 285° |
| 2026-04-20 05:07 | -37.64160 | 144.66313 | 7963 ft | 276 kts | 307° |
| 2026-04-20 05:07 | -37.62642 | 144.64807 | 9088 ft | 283 kts | 328° |
| 2026-04-20 05:08 | -37.60808 | 144.63936 | 10197 ft | 286 kts | 338° |
| 2026-04-20 05:08 | -37.58893 | 144.63237 | 10873 ft | 301 kts | 340° |
| 2026-04-20 05:08 | -37.56717 | 144.62819 | 11263 ft | 330 kts | 355° |
| 2026-04-20 05:08 | -37.54477 | 144.63297 | 11920 ft | 350 kts | 15° |
| 2026-04-20 05:09 | -37.52331 | 144.64844 | 12714 ft | 366 kts | 35° |
| 2026-04-20 05:09 | -37.50575 | 144.67236 | 13435 ft | 379 kts | 49° |
| 2026-04-20 05:09 | -37.49007 | 144.69884 | 14202 ft | 385 kts | 49° |
| 2026-04-20 05:09 | -37.47418 | 144.72604 | 14927 ft | 392 kts | 52° |
| 2026-04-20 05:10 | -37.45998 | 144.75540 | 15681 ft | 399 kts | 56° |
| 2026-04-20 05:10 | -37.44632 | 144.78575 | 16369 ft | 404 kts | 56° |
| 2026-04-20 05:10 | -37.43274 | 144.81558 | 17039 ft | 409 kts | 56° |
| 2026-04-20 05:10 | -37.41884 | 144.84590 | 17689 ft | 413 kts | 55° |
| 2026-04-20 05:11 | -37.40578 | 144.87433 | 18309 ft | 417 kts | 55° |
| 2026-04-20 05:11 | -37.39111 | 144.90619 | 18923 ft | 422 kts | 55° |
| 2026-04-20 05:11 | -37.37609 | 144.93877 | 19554 ft | 426 kts | 55° |
| 2026-04-20 05:11 | -37.36126 | 144.97081 | 20148 ft | 430 kts | 54° |
| 2026-04-20 05:12 | -37.34603 | 145.00363 | 20696 ft | 436 kts | 54° |
| 2026-04-20 05:12 | -37.33073 | 145.03657 | 21246 ft | 440 kts | 54° |
| 2026-04-20 05:12 | -37.31532 | 145.06976 | 21762 ft | 445 kts | 54° |
| 2026-04-20 05:12 | -37.29986 | 145.10303 | 22276 ft | 449 kts | 54° |
| 2026-04-20 05:13 | -37.28393 | 145.13725 | 22754 ft | 454 kts | 54° |
| 2026-04-20 05:13 | -37.26793 | 145.17160 | 23261 ft | 458 kts | 54° |
| 2026-04-20 05:13 | -37.25164 | 145.20656 | 23719 ft | 463 kts | 54° |
| 2026-04-20 05:13 | -37.23554 | 145.24107 | 24184 ft | 467 kts | 54° |
| 2026-04-20 05:14 | -37.21895 | 145.27663 | 24680 ft | 470 kts | 54° |
| 2026-04-20 05:14 | -37.20241 | 145.31206 | 25098 ft | 474 kts | 54° |
| 2026-04-20 05:14 | -37.18568 | 145.34782 | 25533 ft | 477 kts | 54° |
| 2026-04-20 05:14 | -37.16897 | 145.38356 | 25973 ft | 480 kts | 54° |
| 2026-04-20 05:15 | -37.15080 | 145.41913 | 26354 ft | 481 kts | 49° |
| 2026-04-20 05:15 | -37.13120 | 145.45308 | 26797 ft | 482 kts | 47° |
| 2026-04-20 05:15 | -37.11129 | 145.48704 | 27175 ft | 485 kts | 47° |
| 2026-04-20 05:15 | -37.09137 | 145.52132 | 27599 ft | 488 kts | 48° |
| 2026-04-20 05:16 | -37.07159 | 145.55548 | 27946 ft | 491 kts | 48° |
| 2026-04-20 05:16 | -37.05174 | 145.58981 | 28335 ft | 493 kts | 48° |
| 2026-04-20 05:16 | -37.03210 | 145.62381 | 28696 ft | 496 kts | 48° |
| 2026-04-20 05:16 | -37.01172 | 145.65909 | 29040 ft | 498 kts | 47° |
| 2026-04-20 05:17 | -36.99143 | 145.69424 | 29377 ft | 500 kts | 47° |
| 2026-04-20 05:17 | -36.97104 | 145.72957 | 29689 ft | 503 kts | 47° |
| 2026-04-20 05:17 | -36.95063 | 145.76488 | 30006 ft | 505 kts | 47° |
| 2026-04-20 05:17 | -36.93016 | 145.80025 | 30283 ft | 507 kts | 47° |
| 2026-04-20 05:18 | -36.90939 | 145.83611 | 30574 ft | 509 kts | 47° |
| 2026-04-20 05:18 | -36.88875 | 145.87167 | 30863 ft | 511 kts | 47° |
| 2026-04-20 05:18 | -36.86764 | 145.90802 | 31186 ft | 512 kts | 47° |
| 2026-04-20 05:18 | -36.84698 | 145.94353 | 31510 ft | 513 kts | 47° |
| 2026-04-20 05:19 | -36.82594 | 145.97966 | 31849 ft | 513 kts | 47° |
| 2026-04-20 05:19 | -36.80476 | 146.01598 | 32193 ft | 513 kts | 47° |
| 2026-04-20 05:19 | -36.78403 | 146.05145 | 32533 ft | 513 kts | 46° |
| 2026-04-20 05:19 | -36.76295 | 146.08751 | 32880 ft | 513 kts | 46° |
| 2026-04-20 05:20 | -36.74173 | 146.12376 | 33228 ft | 513 kts | 46° |
| 2026-04-20 05:20 | -36.72085 | 146.15939 | 33567 ft | 512 kts | 46° |
| 2026-04-20 05:20 | -36.69987 | 146.19513 | 33905 ft | 512 kts | 46° |
| 2026-04-20 05:20 | -36.67878 | 146.23103 | 34246 ft | 511 kts | 46° |
| 2026-04-20 05:21 | -36.65803 | 146.26631 | 34583 ft | 510 kts | 46° |
| 2026-04-20 05:21 | -36.63701 | 146.30202 | 34920 ft | 510 kts | 46° |
| 2026-04-20 05:21 | -36.61624 | 146.33727 | 35249 ft | 509 kts | 46° |
| 2026-04-20 05:21 | -36.59527 | 146.37285 | 35578 ft | 508 kts | 46° |
| 2026-04-20 05:22 | -36.57435 | 146.40831 | 35898 ft | 507 kts | 46° |
| 2026-04-20 05:22 | -36.55365 | 146.44336 | 36213 ft | 507 kts | 46° |
| 2026-04-20 05:22 | -36.53272 | 146.47876 | 36499 ft | 506 kts | 46° |
| 2026-04-20 05:22 | -36.51182 | 146.51407 | 36783 ft | 506 kts | 46° |
| 2026-04-20 05:23 | -36.49098 | 146.54927 | 37056 ft | 506 kts | 46° |
| 2026-04-20 05:23 | -36.47026 | 146.58421 | 37271 ft | 507 kts | 46° |
| 2026-04-20 05:23 | -36.44935 | 146.61946 | 37291 ft | 505 kts | 46° |
| 2026-04-20 05:24 | -36.40803 | 146.68912 | 37289 ft | 498 kts | 45° |
| 2026-04-20 05:24 | -36.37586 | 146.74322 | 37290 ft | 497 kts | 45° |
| 2026-04-20 05:25 | -36.33471 | 146.81221 | 37291 ft | 498 kts | 45° |
| 2026-04-20 05:25 | -36.29367 | 146.88091 | 37290 ft | 499 kts | 45° |
| 2026-04-20 05:26 | -36.25311 | 146.94867 | 37290 ft | 500 kts | 45° |
| 2026-04-20 05:26 | -36.21214 | 147.01689 | 37291 ft | 503 kts | 46° |
| 2026-04-20 05:27 | -36.17015 | 147.08675 | 37290 ft | 505 kts | 46° |
| 2026-04-20 05:27 | -36.12838 | 147.15614 | 37290 ft | 506 kts | 46° |
| 2026-04-20 05:28 | -36.08641 | 147.22574 | 37290 ft | 505 kts | 46° |
| 2026-04-20 05:28 | -36.04456 | 147.29497 | 37291 ft | 505 kts | 46° |
| 2026-04-20 05:29 | -36.00252 | 147.36436 | 37290 ft | 505 kts | 46° |
| 2026-04-20 05:29 | -35.96040 | 147.43375 | 37290 ft | 505 kts | 46° |
| 2026-04-20 05:30 | -35.91821 | 147.50307 | 37290 ft | 505 kts | 46° |
| 2026-04-20 05:30 | -35.87629 | 147.57181 | 37290 ft | 505 kts | 46° |
| 2026-04-20 05:31 | -35.83419 | 147.64073 | 37290 ft | 505 kts | 46° |
| 2026-04-20 05:31 | -35.79224 | 147.70935 | 37290 ft | 504 kts | 46° |
| 2026-04-20 05:32 | -35.74999 | 147.77837 | 37291 ft | 504 kts | 45° |
| 2026-04-20 05:32 | -35.70792 | 147.84685 | 37290 ft | 504 kts | 45° |
| 2026-04-20 05:33 | -35.66564 | 147.91554 | 37290 ft | 504 kts | 45° |
| 2026-04-20 05:33 | -35.62340 | 147.98402 | 37290 ft | 504 kts | 45° |
| 2026-04-20 05:34 | -35.58099 | 148.05264 | 37290 ft | 504 kts | 45° |
| 2026-04-20 05:34 | -35.51714 | 148.15567 | 37290 ft | 504 kts | 45° |
| 2026-04-20 05:35 | -35.47470 | 148.22398 | 37290 ft | 504 kts | 45° |
| 2026-04-20 05:35 | -35.43241 | 148.29192 | 37290 ft | 504 kts | 45° |
| 2026-04-20 05:36 | -35.38963 | 148.36050 | 37290 ft | 504 kts | 45° |
| 2026-04-20 05:36 | -35.34724 | 148.42833 | 37290 ft | 504 kts | 45° |
| 2026-04-20 05:37 | -35.30445 | 148.49666 | 37290 ft | 504 kts | 45° |
| 2026-04-20 05:37 | -35.26202 | 148.56427 | 37290 ft | 504 kts | 45° |
| 2026-04-20 05:38 | -35.21932 | 148.63219 | 37290 ft | 504 kts | 45° |
| 2026-04-20 05:38 | -35.17681 | 148.69975 | 37290 ft | 504 kts | 45° |
| 2026-04-20 05:39 | -35.13432 | 148.76721 | 37290 ft | 503 kts | 45° |
| 2026-04-20 05:39 | -35.09201 | 148.83415 | 37290 ft | 504 kts | 45° |
| 2026-04-20 05:40 | -35.04946 | 148.90131 | 37290 ft | 506 kts | 45° |
| 2026-04-20 05:40 | -35.00639 | 148.96919 | 37290 ft | 509 kts | 46° |
| 2026-04-20 05:41 | -34.96451 | 149.03519 | 37290 ft | 510 kts | 46° |
| 2026-04-20 05:41 | -34.92086 | 149.10385 | 36822 ft | 516 kts | 47° |
| 2026-04-20 05:42 | -34.89903 | 149.13815 | 36201 ft | 514 kts | 47° |
| 2026-04-20 05:42 | -34.87769 | 149.17171 | 35585 ft | 510 kts | 47° |
| 2026-04-20 05:42 | -34.85569 | 149.20625 | 34944 ft | 505 kts | 47° |
| 2026-04-20 05:42 | -34.83438 | 149.23962 | 34204 ft | 505 kts | 46° |
| 2026-04-20 05:43 | -34.81276 | 149.27336 | 33502 ft | 506 kts | 47° |
| 2026-04-20 05:43 | -34.79115 | 149.30704 | 32808 ft | 510 kts | 47° |
| 2026-04-20 05:43 | -34.76922 | 149.34125 | 32104 ft | 513 kts | 47° |
| 2026-04-20 05:43 | -34.74791 | 149.37628 | 31399 ft | 517 kts | 53° |
| 2026-04-20 05:44 | -34.72963 | 149.41336 | 30704 ft | 518 kts | 58° |
| 2026-04-20 05:44 | -34.71261 | 149.45174 | 29999 ft | 513 kts | 59° |
| 2026-04-20 05:44 | -34.69616 | 149.48932 | 29304 ft | 507 kts | 59° |
| 2026-04-20 05:44 | -34.67970 | 149.52683 | 28602 ft | 502 kts | 59° |
| 2026-04-20 05:45 | -34.66327 | 149.56429 | 27894 ft | 497 kts | 59° |
| 2026-04-20 05:45 | -34.64731 | 149.60072 | 27198 ft | 492 kts | 60° |
| 2026-04-20 05:45 | -34.63140 | 149.63704 | 26497 ft | 487 kts | 60° |
| 2026-04-20 05:45 | -34.61559 | 149.67316 | 25793 ft | 481 kts | 59° |
| 2026-04-20 05:46 | -34.60001 | 149.70880 | 25090 ft | 476 kts | 60° |
| 2026-04-20 05:46 | -34.58468 | 149.74383 | 24392 ft | 471 kts | 60° |
| 2026-04-20 05:46 | -34.56936 | 149.77881 | 23687 ft | 465 kts | 60° |
| 2026-04-20 05:46 | -34.55440 | 149.81294 | 22991 ft | 460 kts | 60° |
| 2026-04-20 05:47 | -34.53952 | 149.84683 | 22273 ft | 446 kts | 60° |
| 2026-04-20 05:47 | -34.52512 | 149.87962 | 21599 ft | 442 kts | 60° |
| 2026-04-20 05:47 | -34.51083 | 149.91209 | 20999 ft | 435 kts | 60° |
| 2026-04-20 05:47 | -34.49667 | 149.94424 | 20419 ft | 429 kts | 60° |
| 2026-04-20 05:48 | -34.48274 | 149.97583 | 19842 ft | 423 kts | 60° |
| 2026-04-20 05:48 | -34.46891 | 150.00716 | 19264 ft | 419 kts | 60° |
| 2026-04-20 05:48 | -34.45524 | 150.03812 | 18686 ft | 414 kts | 60° |
| 2026-04-20 05:48 | -34.44184 | 150.06845 | 18114 ft | 410 kts | 61° |
| 2026-04-20 05:49 | -34.42840 | 150.09883 | 17535 ft | 405 kts | 61° |
| 2026-04-20 05:49 | -34.41519 | 150.12865 | 16959 ft | 401 kts | 61° |
| 2026-04-20 05:49 | -34.40225 | 150.15781 | 16390 ft | 396 kts | 61° |
| 2026-04-20 05:49 | -34.38934 | 150.18687 | 15815 ft | 391 kts | 61° |
| 2026-04-20 05:50 | -34.37648 | 150.21580 | 15236 ft | 387 kts | 61° |
| 2026-04-20 05:50 | -34.36388 | 150.24409 | 14664 ft | 383 kts | 61° |
| 2026-04-20 05:50 | -34.35125 | 150.27245 | 14083 ft | 378 kts | 61° |
| 2026-04-20 05:50 | -34.33894 | 150.30008 | 13511 ft | 374 kts | 61° |
| 2026-04-20 05:51 | -34.32659 | 150.32773 | 12931 ft | 369 kts | 61° |
| 2026-04-20 05:51 | -34.31455 | 150.35469 | 12359 ft | 365 kts | 61° |
| 2026-04-20 05:51 | -34.30267 | 150.38127 | 11788 ft | 361 kts | 62° |
| 2026-04-20 05:51 | -34.29084 | 150.40768 | 11214 ft | 357 kts | 62° |
| 2026-04-20 05:52 | -34.27906 | 150.43401 | 10637 ft | 354 kts | 62° |
| 2026-04-20 05:52 | -34.26746 | 150.45999 | 10064 ft | 351 kts | 62° |
| 2026-04-20 05:52 | -34.25597 | 150.48573 | 9530 ft | 347 kts | 63° |
| 2026-04-20 05:52 | -34.24453 | 150.51132 | 9283 ft | 340 kts | 63° |
| 2026-04-20 05:53 | -34.23362 | 150.53571 | 9027 ft | 328 kts | 63° |
| 2026-04-20 05:53 | -34.22289 | 150.55968 | 8772 ft | 317 kts | 63° |
| 2026-04-20 05:53 | -34.21256 | 150.58276 | 8520 ft | 307 kts | 63° |
| 2026-04-20 05:53 | -34.20260 | 150.60496 | 8271 ft | 299 kts | 63° |
| 2026-04-20 05:54 | -34.19291 | 150.62659 | 8048 ft | 290 kts | 63° |
| 2026-04-20 05:54 | -34.18370 | 150.64708 | 8006 ft | 282 kts | 63° |
| 2026-04-20 05:54 | -34.17422 | 150.66821 | 8000 ft | 286 kts | 63° |
| 2026-04-20 05:54 | -34.16476 | 150.68932 | 7756 ft | 290 kts | 63° |
| 2026-04-20 05:55 | -34.15523 | 150.71051 | 7504 ft | 286 kts | 63° |
| 2026-04-20 05:55 | -34.14581 | 150.73141 | 7254 ft | 283 kts | 62° |
| 2026-04-20 05:55 | -34.13635 | 150.75240 | 7003 ft | 282 kts | 63° |
| 2026-04-20 05:55 | -34.12694 | 150.77330 | 6757 ft | 287 kts | 63° |
| 2026-04-20 05:56 | -34.11754 | 150.79413 | 6505 ft | 281 kts | 63° |
| 2026-04-20 05:56 | -34.10820 | 150.81473 | 6255 ft | 280 kts | 62° |
| 2026-04-20 05:56 | -34.09793 | 150.83254 | 6055 ft | 280 kts | 54° |
| 2026-04-20 05:56 | -34.08736 | 150.85223 | 6020 ft | 281 kts | 62° |
| 2026-04-20 05:57 | -34.07776 | 150.87241 | 6023 ft | 281 kts | 61° |
| 2026-04-20 05:57 | -34.06782 | 150.89298 | 6021 ft | 282 kts | 62° |
| 2026-04-20 05:57 | -34.05798 | 150.91325 | 6016 ft | 281 kts | 61° |
| 2026-04-20 05:57 | -34.04823 | 150.93329 | 6018 ft | 281 kts | 62° |
| 2026-04-20 05:58 | -34.03834 | 150.95363 | 6020 ft | 280 kts | 62° |
| 2026-04-20 05:58 | -34.02865 | 150.97365 | 6018 ft | 279 kts | 61° |
| 2026-04-20 05:58 | -34.01886 | 150.99379 | 6019 ft | 280 kts | 62° |
| 2026-04-20 05:58 | -34.00862 | 151.01360 | 6018 ft | 282 kts | 53° |
| 2026-04-20 05:59 | -33.99390 | 151.02884 | 5867 ft | 283 kts | 27° |
| 2026-04-20 05:59 | -33.97543 | 151.03513 | 5618 ft | 281 kts | 0° |
| 2026-04-20 05:59 | -33.95627 | 151.03381 | 5383 ft | 277 kts | 352° |
| 2026-04-20 05:59 | -33.93834 | 151.03172 | 5147 ft | 275 kts | 352° |
| 2026-04-20 06:00 | -33.91905 | 151.02957 | 4889 ft | 273 kts | 352° |
| 2026-04-20 06:00 | -33.90028 | 151.02754 | 4644 ft | 275 kts | 353° |
| 2026-04-20 06:00 | -33.88160 | 151.02536 | 4398 ft | 273 kts | 352° |
| 2026-04-20 06:00 | -33.86305 | 151.02300 | 4148 ft | 271 kts | 352° |
| 2026-04-20 06:01 | -33.84461 | 151.02060 | 4011 ft | 268 kts | 352° |
| 2026-04-20 06:01 | -33.82594 | 151.01819 | 4011 ft | 271 kts | 352° |
| 2026-04-20 06:01 | -33.80743 | 151.01570 | 4009 ft | 272 kts | 352° |
| 2026-04-20 06:01 | -33.78873 | 151.01308 | 4002 ft | 270 kts | 352° |
| 2026-04-20 06:02 | -33.77036 | 151.01044 | 4001 ft | 270 kts | 352° |
| 2026-04-20 06:02 | -33.75171 | 151.00768 | 3993 ft | 261 kts | 352° |
| 2026-04-20 06:02 | -33.73443 | 151.00508 | 3989 ft | 245 kts | 352° |
| 2026-04-20 06:02 | -33.71817 | 151.00262 | 3993 ft | 230 kts | 352° |
| 2026-04-20 06:03 | -33.70253 | 151.00027 | 4012 ft | 225 kts | 352° |
| 2026-04-20 06:03 | -33.68676 | 150.99789 | 4010 ft | 229 kts | 352° |
| 2026-04-20 06:03 | -33.67123 | 150.99553 | 3996 ft | 228 kts | 352° |
| 2026-04-20 06:03 | -33.65577 | 150.99319 | 3994 ft | 228 kts | 352° |
| 2026-04-20 06:04 | -33.64005 | 150.99170 | 3991 ft | 228 kts | 4° |
| 2026-04-20 06:04 | -33.62517 | 150.99722 | 3982 ft | 219 kts | 37° |
| 2026-04-20 06:04 | -33.61602 | 151.01059 | 3988 ft | 198 kts | 75° |
| 2026-04-20 06:04 | -33.61530 | 151.02536 | 4014 ft | 189 kts | 110° |
| 2026-04-20 06:05 | -33.62062 | 151.03696 | 4017 ft | 185 kts | 133° |
| 2026-04-20 06:05 | -33.62878 | 151.04890 | 3957 ft | 188 kts | 132° |
| 2026-04-20 06:05 | -33.63770 | 151.06030 | 3684 ft | 183 kts | 147° |
| 2026-04-20 06:05 | -33.64818 | 151.06776 | 3455 ft | 172 kts | 153° |
| 2026-04-20 06:06 | -33.65828 | 151.07478 | 3191 ft | 164 kts | 152° |
| 2026-04-20 06:06 | -33.66793 | 151.08157 | 2998 ft | 156 kts | 152° |
| 2026-04-20 06:06 | -33.67713 | 151.08798 | 3027 ft | 147 kts | 153° |
| 2026-04-20 06:06 | -33.68641 | 151.09326 | 3005 ft | 144 kts | 163° |
| 2026-04-20 06:07 | -33.69579 | 151.09685 | 3045 ft | 138 kts | 160° |
| 2026-04-20 06:07 | -33.70470 | 151.10113 | 3050 ft | 137 kts | 161° |
| 2026-04-20 06:07 | -33.71355 | 151.10458 | 3104 ft | 131 kts | 166° |
| 2026-04-20 06:07 | -33.72271 | 151.10774 | 3033 ft | 136 kts | 166° |
| 2026-04-20 06:08 | -33.73165 | 151.11121 | 2892 ft | 135 kts | 166° |
| 2026-04-20 06:08 | -33.74066 | 151.11424 | 2783 ft | 134 kts | 167° |
| 2026-04-20 06:08 | -33.74947 | 151.11697 | 2724 ft | 134 kts | 167° |
| 2026-04-20 06:08 | -33.75836 | 151.12016 | 2688 ft | 136 kts | 165° |
| 2026-04-20 06:09 | -33.76722 | 151.12309 | 2926 ft | 135 kts | 167° |
| 2026-04-20 06:09 | -33.77637 | 151.12614 | 2991 ft | 134 kts | 167° |
| 2026-04-20 06:09 | -33.78525 | 151.12904 | 2975 ft | 136 kts | 167° |
| 2026-04-20 06:09 | -33.79433 | 151.13208 | 2922 ft | 138 kts | 167° |
| 2026-04-20 06:10 | -33.80330 | 151.13519 | 2802 ft | 133 kts | 165° |
| 2026-04-20 06:10 | -33.81177 | 151.13907 | 2651 ft | 131 kts | 166° |
| 2026-04-20 06:10 | -33.82062 | 151.14241 | 2486 ft | 135 kts | 162° |
| 2026-04-20 06:10 | -33.82925 | 151.14615 | 2385 ft | 135 kts | 165° |
| 2026-04-20 06:11 | -33.83822 | 151.14963 | 2178 ft | 135 kts | 164° |
| 2026-04-20 06:11 | -33.84677 | 151.15369 | 1972 ft | 136 kts | 163° |
| 2026-04-20 06:11 | -33.85566 | 151.15620 | 1650 ft | 132 kts | 170° |
| 2026-04-20 06:11 | -33.86369 | 151.15801 | 1391 ft | 129 kts | 173° |
| 2026-04-20 06:12 | -33.87248 | 151.15953 | 1168 ft | 129 kts | 175° |
| 2026-04-20 06:12 | -33.88121 | 151.16069 | 1055 ft | 130 kts | 175° |
| 2026-04-20 06:12 | -33.88998 | 151.16244 | 945 ft | 131 kts | 172° |
| 2026-04-20 06:12 | -33.89869 | 151.16460 | 750 ft | 131 kts | 171° |
| 2026-04-20 06:13 | -33.90746 | 151.16652 | 541 ft | 128 kts | 176° |
| 2026-04-20 06:13 | -33.91618 | 151.16832 | 335 ft | 128 kts | 169° |
| 2026-04-20 06:13 | -33.92477 | 151.17050 | 176 ft | 127 kts | 171° |
| 2026-04-20 06:13 | -33.93333 | 151.17273 | 25 ft | 123 kts | 171° |
| 2026-04-20 06:14 | -33.93961 | 151.17423 | 13 ft | 53 kts | 169° |
| 2026-04-20 06:14 | -33.94178 | 151.17484 | 17 ft | 20 kts | 165° |
| 2026-04-20 06:14 | -33.94334 | 151.17552 | 22 ft | 26 kts | 150° |
| 2026-04-20 06:14 | -33.94462 | 151.17659 | 25 ft | 18 kts | 141° |
| 2026-04-20 06:15 | -33.94514 | 151.17725 | 26 ft | 1 kts | 115° |
| 2026-04-20 06:16 | -33.94517 | 151.17743 | 26 ft | 5 kts | 87° |